sensor_id;sensor_type;location;lat;lon;timestamp;pressure;altitude;pressure_sealevel;temperature;humidity
6833;BME280;3454;42.654;23.378;2023-02-15T00:01:43;95581.50;;;2.16;100.00
6833;BME280;3454;42.654;23.378;2023-02-15T00:04:09;95583.25;;;2.14;100.00
6833;BME280;3454;42.654;23.378;2023-02-15T00:06:37;95591.53;;;2.16;100.00
6833;BME280;3454;42.654;23.378;2023-02-15T00:09:03;95582.34;;;2.15;100.00
6833;BME280;3454;42.654;23.378;2023-02-15T00:11:29;95582.50;;;2.10;100.00
6833;BME280;3454;42.654;23.378;2023-02-15T00:14:30;95590.09;;;2.09;100.00
6833;BME280;3454;42.654;23.378;2023-02-15T00:16:55;95587.13;;;1.99;100.00
6833;BME280;3454;42.654;23.378;2023-02-15T00:19:25;95597.75;;;2.06;100.00
6833;BME280;3454;42.654;23.378;2023-02-15T00:21:50;95598.59;;;2.05;100.00
6833;BME280;3454;42.654;23.378;2023-02-15T00:24:17;95591.47;;;1.94;100.00
6833;BME280;3454;42.654;23.378;2023-02-15T00:26:44;95600.47;;;2.00;100.00
6833;BME280;3454;42.654;23.378;2023-02-15T00:29:11;95608.75;;;2.02;100.00
6833;BME280;3454;42.654;23.378;2023-02-15T00:31:37;95601.13;;;2.05;100.00
6833;BME280;3454;42.654;23.378;2023-02-15T00:34:07;95608.47;;;2.09;100.00
6833;BME280;3454;42.654;23.378;2023-02-15T00:36:33;95603.69;;;2.03;100.00
6833;BME280;3454;42.654;23.378;2023-02-15T00:38:59;95594.66;;;1.99;100.00
6833;BME280;3454;42.654;23.378;2023-02-15T00:41:24;95600.25;;;2.06;100.00
6833;BME280;3454;42.654;23.378;2023-02-15T00:43:49;95616.81;;;2.10;100.00
6833;BME280;3454;42.654;23.378;2023-02-15T00:46:15;95617.69;;;2.09;100.00
6833;BME280;3454;42.654;23.378;2023-02-15T00:48:40;95597.31;;;1.95;100.00
6833;BME280;3454;42.654;23.378;2023-02-15T00:51:06;95601.56;;;1.93;100.00
6833;BME280;3454;42.654;23.378;2023-02-15T00:53:32;95608.09;;;1.97;100.00
6833;BME280;3454;42.654;23.378;2023-02-15T00:55:57;95607.03;;;2.02;100.00
6833;BME280;3454;42.654;23.378;2023-02-15T00:58:23;95594.03;;;1.93;100.00
6833;BME280;3454;42.654;23.378;2023-02-15T01:00:49;95602.16;;;1.99;100.00
6833;BME280;3454;42.654;23.378;2023-02-15T01:03:17;95606.41;;;1.97;100.00
6833;BME280;3454;42.654;23.378;2023-02-15T01:05:43;95609.31;;;2.10;100.00
6833;BME280;3454;42.654;23.378;2023-02-15T01:08:09;95602.00;;;2.04;100.00
6833;BME280;3454;42.654;23.378;2023-02-15T01:10:35;95599.13;;;1.91;100.00
6833;BME280;3454;42.654;23.378;2023-02-15T01:13:00;95599.94;;;1.92;100.00
6833;BME280;3454;42.654;23.378;2023-02-15T01:15:26;95597.53;;;1.89;100.00
6833;BME280;3454;42.654;23.378;2023-02-15T01:17:52;95590.16;;;1.84;100.00
6833;BME280;3454;42.654;23.378;2023-02-15T01:20:23;95598.06;;;1.97;100.00
6833;BME280;3454;42.654;23.378;2023-02-15T01:22:49;95609.56;;;2.02;100.00
6833;BME280;3454;42.654;23.378;2023-02-15T01:25:17;95593.81;;;1.99;100.00
6833;BME280;3454;42.654;23.378;2023-02-15T01:27:43;95604.53;;;2.02;100.00
6833;BME280;3454;42.654;23.378;2023-02-15T01:30:09;95596.38;;;1.97;100.00
6833;BME280;3454;42.654;23.378;2023-02-15T01:32:35;95602.84;;;2.03;100.00
6833;BME280;3454;42.654;23.378;2023-02-15T01:35:00;95588.09;;;1.95;100.00
6833;BME280;3454;42.654;23.378;2023-02-15T01:37:26;95590.53;;;1.97;100.00
6833;BME280;3454;42.654;23.378;2023-02-15T01:39:51;95575.72;;;1.91;100.00
6833;BME280;3454;42.654;23.378;2023-02-15T01:42:22;95594.56;;;2.01;100.00
6833;BME280;3454;42.654;23.378;2023-02-15T01:44:51;95586.47;;;1.94;100.00
6833;BME280;3454;42.654;23.378;2023-02-15T01:47:23;95591.25;;;2.00;100.00
6833;BME280;3454;42.654;23.378;2023-02-15T01:50:00;95579.75;;;1.95;100.00
6833;BME280;3454;42.654;23.378;2023-02-15T01:52:27;95557.03;;;1.76;100.00
6833;BME280;3454;42.654;23.378;2023-02-15T01:54:53;95585.66;;;1.94;100.00
6833;BME280;3454;42.654;23.378;2023-02-15T01:57:22;95565.50;;;1.74;100.00
6833;BME280;3454;42.654;23.378;2023-02-15T01:59:53;95575.41;;;1.77;100.00
6833;BME280;3454;42.654;23.378;2023-02-15T02:02:20;95579.16;;;1.88;100.00
6833;BME280;3454;42.654;23.378;2023-02-15T02:04:54;95575.31;;;1.80;100.00
6833;BME280;3454;42.654;23.378;2023-02-15T02:07:24;95580.34;;;1.80;100.00
6833;BME280;3454;42.654;23.378;2023-02-15T02:09:52;95577.69;;;1.83;100.00
6833;BME280;3454;42.654;23.378;2023-02-15T02:12:18;95577.91;;;1.77;100.00
6833;BME280;3454;42.654;23.378;2023-02-15T02:14:47;95580.25;;;1.81;100.00
6833;BME280;3454;42.654;23.378;2023-02-15T02:20:22;95580.44;;;1.77;100.00
6833;BME280;3454;42.654;23.378;2023-02-15T02:23:27;95597.28;;;1.73;100.00
6833;BME280;3454;42.654;23.378;2023-02-15T02:29:11;95602.88;;;1.80;100.00
6833;BME280;3454;42.654;23.378;2023-02-15T02:37:31;95602.22;;;1.75;100.00
6833;BME280;3454;42.654;23.378;2023-02-15T02:39:42;95607.38;;;1.70;100.00
6833;BME280;3454;42.654;23.378;2023-02-15T02:42:35;95609.25;;;1.88;100.00
6833;BME280;3454;42.654;23.378;2023-02-15T02:45:31;95596.84;;;1.85;100.00
6833;BME280;3454;42.654;23.378;2023-02-15T02:48:08;95579.03;;;1.69;100.00
6833;BME280;3454;42.654;23.378;2023-02-15T02:50:38;95587.72;;;1.83;100.00
6833;BME280;3454;42.654;23.378;2023-02-15T02:53:04;95595.91;;;1.88;100.00
6833;BME280;3454;42.654;23.378;2023-02-15T02:55:33;95610.72;;;1.94;100.00
6833;BME280;3454;42.654;23.378;2023-02-15T03:00:44;95614.38;;;1.85;100.00
6833;BME280;3454;42.654;23.378;2023-02-15T03:05:54;95632.19;;;2.01;100.00
6833;BME280;3454;42.654;23.378;2023-02-15T03:08:25;95620.75;;;1.94;100.00
6833;BME280;3454;42.654;23.378;2023-02-15T03:10:55;95634.69;;;2.01;100.00
6833;BME280;3454;42.654;23.378;2023-02-15T03:13:23;95636.59;;;1.94;100.00
6833;BME280;3454;42.654;23.378;2023-02-15T03:15:51;95633.88;;;2.00;100.00
6833;BME280;3454;42.654;23.378;2023-02-15T03:18:46;95632.31;;;1.98;100.00
6833;BME280;3454;42.654;23.378;2023-02-15T03:21:47;95634.69;;;2.01;100.00
6833;BME280;3454;42.654;23.378;2023-02-15T03:24:54;95653.44;;;2.14;100.00
6833;BME280;3454;42.654;23.378;2023-02-15T03:27:21;95645.75;;;2.18;100.00
6833;BME280;3454;42.654;23.378;2023-02-15T03:29:52;95619.59;;;2.02;100.00
6833;BME280;3454;42.654;23.378;2023-02-15T03:32:19;95639.94;;;2.18;100.00
6833;BME280;3454;42.654;23.378;2023-02-15T03:34:45;95641.56;;;2.19;100.00
6833;BME280;3454;42.654;23.378;2023-02-15T03:39:56;95635.91;;;2.14;100.00
6833;BME280;3454;42.654;23.378;2023-02-15T03:42:45;95631.69;;;2.14;100.00
6833;BME280;3454;42.654;23.378;2023-02-15T03:45:16;95634.78;;;2.21;100.00
6833;BME280;3454;42.654;23.378;2023-02-15T03:47:45;95626.56;;;2.17;100.00
6833;BME280;3454;42.654;23.378;2023-02-15T03:52:59;95626.50;;;2.19;100.00
6833;BME280;3454;42.654;23.378;2023-02-15T03:55:28;95621.63;;;2.16;100.00
6833;BME280;3454;42.654;23.378;2023-02-15T03:57:53;95649.59;;;2.27;100.00
6833;BME280;3454;42.654;23.378;2023-02-15T04:00:41;95639.72;;;2.24;100.00
6833;BME280;3454;42.654;23.378;2023-02-15T04:05:54;95644.81;;;2.21;100.00
6833;BME280;3454;42.654;23.378;2023-02-15T04:08:19;95654.63;;;2.27;100.00
6833;BME280;3454;42.654;23.378;2023-02-15T04:10:44;95645.56;;;2.23;100.00
6833;BME280;3454;42.654;23.378;2023-02-15T04:13:31;95651.34;;;2.25;100.00
6833;BME280;3454;42.654;23.378;2023-02-15T04:15:56;95661.38;;;2.25;100.00
6833;BME280;3454;42.654;23.378;2023-02-15T04:18:28;95653.78;;;2.28;100.00
6833;BME280;3454;42.654;23.378;2023-02-15T04:21:12;95662.91;;;2.29;100.00
6833;BME280;3454;42.654;23.378;2023-02-15T04:23:56;95646.56;;;2.19;100.00
6833;BME280;3454;42.654;23.378;2023-02-15T04:26:40;95674.47;;;2.33;100.00
6833;BME280;3454;42.654;23.378;2023-02-15T04:29:05;95667.00;;;2.31;100.00
6833;BME280;3454;42.654;23.378;2023-02-15T04:31:31;95683.53;;;2.37;100.00
6833;BME280;3454;42.654;23.378;2023-02-15T04:33:56;95693.63;;;2.35;100.00
6833;BME280;3454;42.654;23.378;2023-02-15T04:36:21;95687.78;;;2.35;100.00
6833;BME280;3454;42.654;23.378;2023-02-15T04:38:47;95684.22;;;2.40;100.00
6833;BME280;3454;42.654;23.378;2023-02-15T04:41:12;95694.09;;;2.45;100.00
6833;BME280;3454;42.654;23.378;2023-02-15T04:43:38;95698.94;;;2.49;100.00
6833;BME280;3454;42.654;23.378;2023-02-15T04:46:04;95695.91;;;2.41;100.00
6833;BME280;3454;42.654;23.378;2023-02-15T04:48:30;95677.75;;;2.35;100.00
6833;BME280;3454;42.654;23.378;2023-02-15T04:50:55;95667.72;;;2.35;100.00
6833;BME280;3454;42.654;23.378;2023-02-15T04:53:21;95686.03;;;2.37;100.00
6833;BME280;3454;42.654;23.378;2023-02-15T04:55:46;95677.59;;;2.39;100.00
6833;BME280;3454;42.654;23.378;2023-02-15T04:58:12;95692.78;;;2.35;100.00
6833;BME280;3454;42.654;23.378;2023-02-15T05:00:38;95693.56;;;2.37;100.00
6833;BME280;3454;42.654;23.378;2023-02-15T05:03:03;95678.78;;;2.29;100.00
6833;BME280;3454;42.654;23.378;2023-02-15T05:05:28;95691.72;;;2.42;100.00
6833;BME280;3454;42.654;23.378;2023-02-15T05:07:54;95700.84;;;2.43;100.00
6833;BME280;3454;42.654;23.378;2023-02-15T05:10:19;95703.66;;;2.35;100.00
6833;BME280;3454;42.654;23.378;2023-02-15T05:12:45;95692.34;;;2.47;100.00
6833;BME280;3454;42.654;23.378;2023-02-15T05:15:10;95705.44;;;2.55;100.00
6833;BME280;3454;42.654;23.378;2023-02-15T05:17:36;95712.84;;;2.58;100.00
6833;BME280;3454;42.654;23.378;2023-02-15T05:20:01;95717.44;;;2.47;100.00
6833;BME280;3454;42.654;23.378;2023-02-15T05:22:27;95717.38;;;2.48;100.00
6833;BME280;3454;42.654;23.378;2023-02-15T05:24:52;95716.44;;;2.51;100.00
6833;BME280;3454;42.654;23.378;2023-02-15T05:27:36;95727.47;;;2.47;100.00
6833;BME280;3454;42.654;23.378;2023-02-15T05:30:20;95702.44;;;2.45;100.00
6833;BME280;3454;42.654;23.378;2023-02-15T05:32:46;95725.84;;;2.46;100.00
6833;BME280;3454;42.654;23.378;2023-02-15T05:35:14;95719.31;;;2.42;100.00
6833;BME280;3454;42.654;23.378;2023-02-15T05:37:40;95723.66;;;2.37;100.00
6833;BME280;3454;42.654;23.378;2023-02-15T05:40:06;95704.63;;;2.31;100.00
6833;BME280;3454;42.654;23.378;2023-02-15T05:42:36;95718.53;;;2.40;100.00
6833;BME280;3454;42.654;23.378;2023-02-15T05:45:02;95717.56;;;2.44;100.00
6833;BME280;3454;42.654;23.378;2023-02-15T05:47:28;95725.72;;;2.49;100.00
6833;BME280;3454;42.654;23.378;2023-02-15T05:49:54;95734.84;;;2.51;100.00
6833;BME280;3454;42.654;23.378;2023-02-15T05:52:19;95738.50;;;2.43;100.00
6833;BME280;3454;42.654;23.378;2023-02-15T05:54:45;95741.66;;;2.48;100.00
6833;BME280;3454;42.654;23.378;2023-02-15T05:57:10;95743.13;;;2.53;100.00
6833;BME280;3454;42.654;23.378;2023-02-15T05:59:36;95753.56;;;2.66;100.00
6833;BME280;3454;42.654;23.378;2023-02-15T06:02:01;95762.13;;;2.61;100.00
6833;BME280;3454;42.654;23.378;2023-02-15T06:04:26;95741.59;;;2.49;100.00
6833;BME280;3454;42.654;23.378;2023-02-15T06:06:52;95769.09;;;2.76;100.00
6833;BME280;3454;42.654;23.378;2023-02-15T06:09:17;95786.28;;;2.86;100.00
6833;BME280;3454;42.654;23.378;2023-02-15T06:11:44;95776.69;;;2.74;100.00
6833;BME280;3454;42.654;23.378;2023-02-15T06:14:10;95764.34;;;2.68;100.00
6833;BME280;3454;42.654;23.378;2023-02-15T06:16:36;95759.34;;;2.68;100.00
6833;BME280;3454;42.654;23.378;2023-02-15T06:19:02;95766.75;;;2.71;100.00
6833;BME280;3454;42.654;23.378;2023-02-15T06:21:28;95793.13;;;2.83;100.00
6833;BME280;3454;42.654;23.378;2023-02-15T06:23:54;95805.00;;;3.01;100.00
6833;BME280;3454;42.654;23.378;2023-02-15T06:26:19;95805.22;;;2.95;100.00
6833;BME280;3454;42.654;23.378;2023-02-15T06:28:45;95800.28;;;2.92;100.00
6833;BME280;3454;42.654;23.378;2023-02-15T06:31:10;95802.50;;;2.99;100.00
6833;BME280;3454;42.654;23.378;2023-02-15T06:33:36;95799.97;;;3.01;100.00
6833;BME280;3454;42.654;23.378;2023-02-15T06:36:01;95815.59;;;3.07;100.00
6833;BME280;3454;42.654;23.378;2023-02-15T06:38:28;95794.34;;;2.94;100.00
6833;BME280;3454;42.654;23.378;2023-02-15T06:40:54;95788.84;;;2.85;100.00
6833;BME280;3454;42.654;23.378;2023-02-15T06:43:19;95799.25;;;2.97;100.00
6833;BME280;3454;42.654;23.378;2023-02-15T06:45:45;95810.00;;;3.01;100.00
6833;BME280;3454;42.654;23.378;2023-02-15T06:48:10;95792.91;;;2.87;100.00
6833;BME280;3454;42.654;23.378;2023-02-15T06:50:37;95802.50;;;2.99;100.00
6833;BME280;3454;42.654;23.378;2023-02-15T06:53:03;95812.88;;;3.13;100.00
6833;BME280;3454;42.654;23.378;2023-02-15T06:55:28;95811.78;;;3.20;100.00
6833;BME280;3454;42.654;23.378;2023-02-15T06:57:54;95807.56;;;3.21;100.00
6833;BME280;3454;42.654;23.378;2023-02-15T07:00:19;95809.25;;;3.20;100.00
6833;BME280;3454;42.654;23.378;2023-02-15T07:02:47;95811.25;;;3.12;100.00
6833;BME280;3454;42.654;23.378;2023-02-15T07:05:12;95805.41;;;3.12;100.00
6833;BME280;3454;42.654;23.378;2023-02-15T07:07:44;95827.69;;;3.21;100.00
6833;BME280;3454;42.654;23.378;2023-02-15T07:10:09;95844.50;;;3.40;100.00
6833;BME280;3454;42.654;23.378;2023-02-15T07:12:35;95847.13;;;3.37;100.00
6833;BME280;3454;42.654;23.378;2023-02-15T07:15:07;95828.44;;;3.23;100.00
6833;BME280;3454;42.654;23.378;2023-02-15T07:17:34;95845.97;;;3.46;100.00
6833;BME280;3454;42.654;23.378;2023-02-15T07:20:00;95881.38;;;3.62;100.00
6833;BME280;3454;42.654;23.378;2023-02-15T07:22:25;95893.94;;;3.62;100.00
6833;BME280;3454;42.654;23.378;2023-02-15T07:24:51;95882.63;;;3.73;100.00
6833;BME280;3454;42.654;23.378;2023-02-15T07:27:19;95886.00;;;3.51;99.80
6833;BME280;3454;42.654;23.378;2023-02-15T07:29:44;95878.53;;;3.71;99.71
6833;BME280;3454;42.654;23.378;2023-02-15T07:32:10;95891.28;;;3.66;98.77
6833;BME280;3454;42.654;23.378;2023-02-15T07:34:35;95893.25;;;3.80;97.32
6833;BME280;3454;42.654;23.378;2023-02-15T07:37:01;95898.69;;;3.91;96.92
6833;BME280;3454;42.654;23.378;2023-02-15T07:39:26;95908.41;;;4.00;95.77
6833;BME280;3454;42.654;23.378;2023-02-15T07:41:51;95885.13;;;3.95;96.54
6833;BME280;3454;42.654;23.378;2023-02-15T07:44:17;95878.75;;;3.86;96.07
6833;BME280;3454;42.654;23.378;2023-02-15T07:46:42;95903.00;;;4.09;95.63
6833;BME280;3454;42.654;23.378;2023-02-15T07:49:08;95906.59;;;4.03;94.18
6833;BME280;3454;42.654;23.378;2023-02-15T07:51:33;95918.03;;;4.10;93.94
6833;BME280;3454;42.654;23.378;2023-02-15T07:53:58;95908.28;;;4.03;94.39
6833;BME280;3454;42.654;23.378;2023-02-15T07:56:24;95917.31;;;4.28;93.65
6833;BME280;3454;42.654;23.378;2023-02-15T07:58:49;95936.25;;;4.37;92.94
6833;BME280;3454;42.654;23.378;2023-02-15T08:01:20;95962.47;;;4.93;90.93
6833;BME280;3454;42.654;23.378;2023-02-15T08:03:46;95975.31;;;4.87;90.13
6833;BME280;3454;42.654;23.378;2023-02-15T08:06:11;95973.22;;;4.77;89.85
6833;BME280;3454;42.654;23.378;2023-02-15T08:08:39;95957.34;;;4.75;89.74
6833;BME280;3454;42.654;23.378;2023-02-15T08:11:06;95993.28;;;5.39;88.74
6833;BME280;3454;42.654;23.378;2023-02-15T08:14:02;95956.66;;;4.91;89.83
6833;BME280;3454;42.654;23.378;2023-02-15T08:16:42;95990.88;;;5.17;88.24
6833;BME280;3454;42.654;23.378;2023-02-15T08:19:12;95989.66;;;5.05;88.35
6833;BME280;3454;42.654;23.378;2023-02-15T08:21:43;95953.78;;;5.00;89.43
6833;BME280;3454;42.654;23.378;2023-02-15T08:24:10;95969.84;;;4.98;89.26
6833;BME280;3454;42.654;23.378;2023-02-15T08:26:37;95926.53;;;4.50;91.03
6833;BME280;3454;42.654;23.378;2023-02-15T08:29:04;95935.16;;;4.64;90.43
6833;BME280;3454;42.654;23.378;2023-02-15T08:31:32;95930.13;;;4.44;90.75
6833;BME280;3454;42.654;23.378;2023-02-15T08:33:57;95911.47;;;4.28;91.92
6833;BME280;3454;42.654;23.378;2023-02-15T08:36:24;95885.47;;;4.07;93.13
6833;BME280;3454;42.654;23.378;2023-02-15T08:38:50;95870.78;;;3.97;93.41
6833;BME280;3454;42.654;23.378;2023-02-15T08:41:24;95879.44;;;4.11;93.19
6833;BME280;3454;42.654;23.378;2023-02-15T08:43:52;95907.00;;;4.35;91.56
6833;BME280;3454;42.654;23.378;2023-02-15T08:46:22;95946.47;;;4.54;90.37
6833;BME280;3454;42.654;23.378;2023-02-15T08:48:49;95924.09;;;4.26;90.73
6833;BME280;3454;42.654;23.378;2023-02-15T08:51:20;95931.75;;;4.45;90.86
6833;BME280;3454;42.654;23.378;2023-02-15T08:53:48;95775.06;;;3.38;91.25
6833;BME280;3454;42.654;23.378;2023-02-15T08:56:14;95924.09;;;4.26;90.66
6833;BME280;3454;42.654;23.378;2023-02-15T08:58:41;95958.56;;;4.46;90.15
6833;BME280;3454;42.654;23.378;2023-02-15T09:01:15;95952.53;;;4.28;89.65
6833;BME280;3454;42.654;23.378;2023-02-15T09:03:50;95952.00;;;4.42;89.60
6833;BME280;3454;42.654;23.378;2023-02-15T09:06:19;95976.63;;;4.56;88.89
6833;BME280;3454;42.654;23.378;2023-02-15T09:08:44;96023.06;;;4.90;86.91
6833;BME280;3454;42.654;23.378;2023-02-15T09:11:15;96039.56;;;4.97;85.42
6833;BME280;3454;42.654;23.378;2023-02-15T09:13:48;96029.47;;;4.77;85.40
6833;BME280;3454;42.654;23.378;2023-02-15T09:16:14;96021.91;;;4.77;85.56
6833;BME280;3454;42.654;23.378;2023-02-15T09:18:42;96053.41;;;4.87;84.33
6833;BME280;3454;42.654;23.378;2023-02-15T09:21:11;96038.53;;;4.81;84.29
6833;BME280;3454;42.654;23.378;2023-02-15T09:23:41;96057.94;;;4.79;83.50
6833;BME280;3454;42.654;23.378;2023-02-15T09:26:10;96059.38;;;4.85;83.70
6833;BME280;3454;42.654;23.378;2023-02-15T09:28:37;96045.16;;;4.84;83.13
6833;BME280;3454;42.654;23.378;2023-02-15T09:31:13;96107.50;;;5.61;81.01
6833;BME280;3454;42.654;23.378;2023-02-15T09:33:41;96113.38;;;5.61;81.04
6833;BME280;3454;42.654;23.378;2023-02-15T09:36:28;96039.13;;;5.08;83.73
6833;BME280;3454;42.654;23.378;2023-02-15T09:39:04;96038.38;;;5.26;83.44
6833;BME280;3454;42.654;23.378;2023-02-15T09:44:27;96062.00;;;5.24;82.32
6833;BME280;3454;42.654;23.378;2023-02-15T10:07:04;96107.53;;;5.79;78.34
6833;BME280;3454;42.654;23.378;2023-02-15T10:10:19;96070.41;;;5.63;79.77
6833;BME280;3454;42.654;23.378;2023-02-15T10:13:00;96106.91;;;6.13;78.12
6833;BME280;3454;42.654;23.378;2023-02-15T10:15:42;96136.22;;;6.54;75.89
6833;BME280;3454;42.654;23.378;2023-02-15T10:21:01;96241.84;;;7.74;71.99
6833;BME280;3454;42.654;23.378;2023-02-15T10:23:59;96275.41;;;8.28;69.74
6833;BME280;3454;42.654;23.378;2023-02-15T10:26:33;96210.81;;;7.34;70.85
6833;BME280;3454;42.654;23.378;2023-02-15T10:29:07;96176.13;;;7.19;71.60
6833;BME280;3454;42.654;23.378;2023-02-15T10:31:50;96164.91;;;7.25;71.76
6833;BME280;3454;42.654;23.378;2023-02-15T10:34:23;96093.41;;;6.51;74.45
6833;BME280;3454;42.654;23.378;2023-02-15T10:39:23;96163.13;;;7.44;71.81
6833;BME280;3454;42.654;23.378;2023-02-15T10:53:45;96101.38;;;7.31;71.94
6833;BME280;3454;42.654;23.378;2023-02-15T10:56:47;96209.72;;;8.25;68.27
6833;BME280;3454;42.654;23.378;2023-02-15T11:02:23;96183.88;;;7.68;68.98
6833;BME280;3454;42.654;23.378;2023-02-15T11:07:50;96217.22;;;8.27;66.95
6833;BME280;3454;42.654;23.378;2023-02-15T11:10:35;96180.84;;;7.78;68.18
6833;BME280;3454;42.654;23.378;2023-02-15T11:13:16;96162.50;;;7.90;68.18
6833;BME280;3454;42.654;23.378;2023-02-15T11:16:16;96279.19;;;9.02;64.79
6833;BME280;3454;42.654;23.378;2023-02-15T11:18:51;96224.50;;;8.66;66.21
6833;BME280;3454;42.654;23.378;2023-02-15T11:21:31;96195.75;;;8.17;66.80
6833;BME280;3454;42.654;23.378;2023-02-15T11:24:11;96160.81;;;7.91;67.96
6833;BME280;3454;42.654;23.378;2023-02-15T11:26:51;96161.00;;;8.03;67.72
6833;BME280;3454;42.654;23.378;2023-02-15T11:29:30;96171.31;;;8.33;67.40
6833;BME280;3454;42.654;23.378;2023-02-15T11:32:04;96121.06;;;7.76;69.48
6833;BME280;3454;42.654;23.378;2023-02-15T11:34:52;96163.72;;;8.48;66.82
6833;BME280;3454;42.654;23.378;2023-02-15T11:37:23;96228.56;;;9.62;65.58
6833;BME280;3454;42.654;23.378;2023-02-15T11:39:51;96276.59;;;9.80;63.54
6833;BME280;3454;42.654;23.378;2023-02-15T11:42:21;96272.66;;;9.29;62.80
6833;BME280;3454;42.654;23.378;2023-02-15T11:47:19;96157.69;;;8.35;66.19
6833;BME280;3454;42.654;23.378;2023-02-15T11:49:45;96153.84;;;8.60;66.31
6833;BME280;3454;42.654;23.378;2023-02-15T11:52:13;96184.59;;;9.16;64.44
6833;BME280;3454;42.654;23.378;2023-02-15T11:54:42;96266.97;;;10.01;61.64
6833;BME280;3454;42.654;23.378;2023-02-15T11:57:15;96220.50;;;9.24;62.70
6833;BME280;3454;42.654;23.378;2023-02-15T11:59:55;96237.44;;;9.55;61.98
6833;BME280;3454;42.654;23.378;2023-02-15T12:02:22;96198.41;;;8.95;62.73
6833;BME280;3454;42.654;23.378;2023-02-15T12:05:00;96194.09;;;9.12;62.80
6833;BME280;3454;42.654;23.378;2023-02-15T12:10:03;96150.50;;;8.75;64.17
6833;BME280;3454;42.654;23.378;2023-02-15T12:12:34;96172.69;;;9.32;63.24
6833;BME280;3454;42.654;23.378;2023-02-15T12:15:07;96229.94;;;9.97;61.62
6833;BME280;3454;42.654;23.378;2023-02-15T12:17:38;96297.31;;;10.34;59.17
6833;BME280;3454;42.654;23.378;2023-02-15T12:20:24;96281.84;;;10.23;59.15
6833;BME280;3454;42.654;23.378;2023-02-15T12:22:59;96243.88;;;9.90;59.92
6833;BME280;3454;42.654;23.378;2023-02-15T12:28:14;96156.78;;;8.83;62.53
6833;BME280;3454;42.654;23.378;2023-02-15T12:30:43;96121.78;;;8.59;63.88
6833;BME280;3454;42.654;23.378;2023-02-15T12:33:41;96117.31;;;8.64;64.07
6833;BME280;3454;42.654;23.378;2023-02-15T12:38:36;96100.38;;;8.64;64.09
6833;BME280;3454;42.654;23.378;2023-02-15T12:41:05;96180.06;;;9.66;61.67
6833;BME280;3454;42.654;23.378;2023-02-15T12:43:36;96172.59;;;9.49;61.46
6833;BME280;3454;42.654;23.378;2023-02-15T12:46:26;96099.69;;;8.92;63.72
6833;BME280;3454;42.654;23.378;2023-02-15T12:49:15;96104.44;;;8.98;63.19
6833;BME280;3454;42.654;23.378;2023-02-15T12:51:54;96093.97;;;8.88;63.53
6833;BME280;3454;42.654;23.378;2023-02-15T12:54:30;96130.28;;;9.34;62.05
6833;BME280;3454;42.654;23.378;2023-02-15T12:56:57;96190.38;;;9.93;60.46
6833;BME280;3454;42.654;23.378;2023-02-15T12:59:24;96104.13;;;9.18;62.51
6833;BME280;3454;42.654;23.378;2023-02-15T13:01:51;96102.03;;;9.10;62.95
6833;BME280;3454;42.654;23.378;2023-02-15T13:04:23;96119.75;;;9.26;62.49
6833;BME280;3454;42.654;23.378;2023-02-15T13:06:52;96131.97;;;9.49;61.70
6833;BME280;3454;42.654;23.378;2023-02-15T13:11:46;96173.66;;;9.75;60.64
6833;BME280;3454;42.654;23.378;2023-02-15T13:16:52;96204.69;;;10.38;59.36
6833;BME280;3454;42.654;23.378;2023-02-15T13:19:36;96197.16;;;9.92;59.18
6833;BME280;3454;42.654;23.378;2023-02-15T13:22:06;96156.00;;;9.58;60.35
6833;BME280;3454;42.654;23.378;2023-02-15T13:24:39;96148.22;;;9.61;60.24
6833;BME280;3454;42.654;23.378;2023-02-15T13:27:12;96118.91;;;9.41;61.43
6833;BME280;3454;42.654;23.378;2023-02-15T13:29:49;96149.50;;;9.82;60.50
6833;BME280;3454;42.654;23.378;2023-02-15T13:32:28;96101.84;;;9.29;61.55
6833;BME280;3454;42.654;23.378;2023-02-15T13:34:59;96075.22;;;9.06;62.89
6833;BME280;3454;42.654;23.378;2023-02-15T13:40:07;96060.09;;;9.05;63.21
6833;BME280;3454;42.654;23.378;2023-02-15T13:43:19;96063.78;;;9.29;63.23
6833;BME280;3454;42.654;23.378;2023-02-15T13:56:27;96056.88;;;9.01;63.80
6833;BME280;3454;42.654;23.378;2023-02-15T14:01:43;96029.88;;;8.71;64.70
6833;BME280;3454;42.654;23.378;2023-02-15T14:07:29;96021.53;;;8.69;65.61
6833;BME280;3454;42.654;23.378;2023-02-15T14:18:55;96094.97;;;9.45;63.22
6833;BME280;3454;42.654;23.378;2023-02-15T14:30:03;95982.66;;;8.23;67.50
6833;BME280;3454;42.654;23.378;2023-02-15T14:32:32;95939.25;;;7.84;69.00
6833;BME280;3454;42.654;23.378;2023-02-15T14:35:03;95923.88;;;7.71;69.73
6833;BME280;3454;42.654;23.378;2023-02-15T14:37:54;95914.97;;;7.64;70.06
6833;BME280;3454;42.654;23.378;2023-02-15T14:41:01;95885.03;;;7.56;71.48
6833;BME280;3454;42.654;23.378;2023-02-15T14:46:52;95874.91;;;7.41;71.74
6833;BME280;3454;42.654;23.378;2023-02-15T14:49:23;95890.06;;;7.72;71.18
6833;BME280;3454;42.654;23.378;2023-02-15T14:56:41;95799.97;;;6.76;74.71
6833;BME280;3454;42.654;23.378;2023-02-15T14:59:17;95780.50;;;6.61;75.34
6833;BME280;3454;42.654;23.378;2023-02-15T15:04:34;95749.41;;;6.28;76.96
6833;BME280;3454;42.654;23.378;2023-02-15T15:07:09;95731.78;;;6.26;77.71
6833;BME280;3454;42.654;23.378;2023-02-15T15:09:40;95719.31;;;6.08;78.47
6833;BME280;3454;42.654;23.378;2023-02-15T15:14:48;95735.31;;;6.24;78.19
6833;BME280;3454;42.654;23.378;2023-02-15T15:20:11;95700.34;;;5.82;79.97
6833;BME280;3454;42.654;23.378;2023-02-15T15:22:39;95698.88;;;5.78;80.51
6833;BME280;3454;42.654;23.378;2023-02-15T15:25:52;95700.22;;;5.68;80.44
6833;BME280;3454;42.654;23.378;2023-02-15T15:27:58;95691.19;;;5.47;81.25
6833;BME280;3454;42.654;23.378;2023-02-15T15:38:38;95694.75;;;5.43;82.12
6833;BME280;3454;42.654;23.378;2023-02-15T15:44:27;95677.38;;;5.20;82.85
6833;BME280;3454;42.654;23.378;2023-02-15T15:47:39;95681.53;;;5.21;83.40
6833;BME280;3454;42.654;23.378;2023-02-15T15:49:58;95659.31;;;4.93;84.34
6833;BME280;3454;42.654;23.378;2023-02-15T15:52:25;95666.13;;;4.91;84.58
6833;BME280;3454;42.654;23.378;2023-02-15T15:54:56;95667.03;;;5.07;84.57
6833;BME280;3454;42.654;23.378;2023-02-15T15:57:28;95664.03;;;5.00;84.33
6833;BME280;3454;42.654;23.378;2023-02-15T15:59:56;95668.31;;;4.98;84.94
6833;BME280;3454;42.654;23.378;2023-02-15T16:02:25;95656.06;;;4.91;85.39
6833;BME280;3454;42.654;23.378;2023-02-15T16:04:50;95666.81;;;4.94;85.21
6833;BME280;3454;42.654;23.378;2023-02-15T16:09:55;95668.38;;;4.97;85.72